createdAt,value
2018-05-12T00:00:08.377Z,30.93
2018-05-12T00:02:35.836Z,34.43
2018-05-12T00:05:03.286Z,25.20
2018-05-12T00:07:31.367Z,33.53
2018-05-12T00:09:58.821Z,32.63
2018-05-12T00:12:26.273Z,35.47
2018-05-12T00:14:53.773Z,26.27
2018-05-12T00:17:21.180Z,38.17
2018-05-12T00:19:48.634Z,29.40
2018-05-12T00:22:16.093Z,23.43
2018-05-12T00:24:43.546Z,38.70
2018-05-12T00:27:10.994Z,37.53
2018-05-12T00:29:38.444Z,38.87
2018-05-12T00:32:05.899Z,33.17
2018-05-12T00:34:33.343Z,42.27
2018-05-12T00:37:00.794Z,40.33
2018-05-12T00:39:28.266Z,44.90
2018-05-12T00:41:55.710Z,46.00
2018-05-12T00:44:23.159Z,31.67
2018-05-12T00:46:50.637Z,38.60
2018-05-12T00:49:18.087Z,42.70
2018-05-12T00:51:45.553Z,39.43
2018-05-12T00:54:13.021Z,38.77
2018-05-12T00:56:40.482Z,38.07
2018-05-12T00:59:07.972Z,45.90
2018-05-12T01:01:35.429Z,45.13
2018-05-12T01:04:02.970Z,44.40
2018-05-12T01:06:30.406Z,43.67
2018-05-12T01:08:57.865Z,40.47
2018-05-12T01:11:25.329Z,34.17
2018-05-12T01:13:52.792Z,46.10
2018-05-12T01:16:20.246Z,31.23
2018-05-12T01:18:47.722Z,45.10
2018-05-12T01:21:15.186Z,36.47
2018-05-12T01:23:42.634Z,38.13
2018-05-12T01:26:10.090Z,47.53
2018-05-12T01:28:37.558Z,50.07
2018-05-12T01:31:05.006Z,45.10
2018-05-12T01:33:32.454Z,40.53
2018-05-12T01:35:59.913Z,46.13
2018-05-12T01:38:27.353Z,49.50
2018-05-12T01:40:54.788Z,33.17
2018-05-12T01:43:22.260Z,49.60
2018-05-12T01:45:49.720Z,49.67
2018-05-12T01:48:17.265Z,44.70
2018-05-12T01:50:44.714Z,38.53
2018-05-12T01:53:12.145Z,38.07
2018-05-12T01:55:39.593Z,34.60
2018-05-12T01:58:07.033Z,36.30
2018-05-12T02:00:34.506Z,34.33
2018-05-12T02:03:01.946Z,30.70
2018-05-12T02:05:29.398Z,42.20
2018-05-12T02:07:56.864Z,37.90
2018-05-12T02:10:24.319Z,41.50
2018-05-12T02:12:51.819Z,36.40
2018-05-12T02:15:19.273Z,33.00
2018-05-12T02:17:46.741Z,39.37
2018-05-12T02:20:14.195Z,40.03
2018-05-12T02:22:41.651Z,37.07
2018-05-12T02:25:09.110Z,40.97
2018-05-12T02:27:36.577Z,39.37
2018-05-12T02:30:04.034Z,34.53
2018-05-12T02:32:31.474Z,39.13
2018-05-12T02:34:58.954Z,32.33
2018-05-12T02:37:26.404Z,32.97
2018-05-12T02:39:53.851Z,48.20
2018-05-12T02:42:21.315Z,38.03
2018-05-12T02:44:48.765Z,41.23
2018-05-12T02:47:16.238Z,29.93
2018-05-12T02:49:43.692Z,40.10
2018-05-12T02:52:11.154Z,40.03
2018-05-12T02:54:38.609Z,37.50
2018-05-12T02:57:06.061Z,32.03
2018-05-12T02:59:33.536Z,34.07
2018-05-12T03:02:01.001Z,38.23
2018-05-12T03:04:28.535Z,39.30
2018-05-12T03:06:55.987Z,45.07
2018-05-12T03:09:23.461Z,38.10
2018-05-12T03:11:50.938Z,45.97
2018-05-12T03:14:18.390Z,40.53
2018-05-12T03:16:45.837Z,31.97
2018-05-12T03:19:13.319Z,37.00
2018-05-12T03:21:40.767Z,33.03
2018-05-12T03:24:08.204Z,47.07
2018-05-12T03:26:35.675Z,40.17
2018-05-12T03:29:03.178Z,47.80
2018-05-12T03:31:30.635Z,42.07
2018-05-12T03:33:58.114Z,48.20
2018-05-12T03:36:25.630Z,42.93
2018-05-12T03:38:53.171Z,31.40
2018-05-12T03:41:20.591Z,35.80
2018-05-12T03:43:48.046Z,38.70
2018-05-12T03:46:15.498Z,50.07
2018-05-12T03:48:42.974Z,42.37
2018-05-12T03:51:10.435Z,43.70
2018-05-12T03:53:37.870Z,42.50
2018-05-12T03:56:05.345Z,48.07
2018-05-12T03:58:32.803Z,46.13
2018-05-12T04:01:00.406Z,47.70
2018-05-12T04:03:27.861Z,41.40
2018-05-12T04:06:07.165Z,47.60
2018-05-12T04:08:47.350Z,50.47
2018-05-12T04:11:26.635Z,45.83
2018-05-12T04:13:54.108Z,52.30
2018-05-12T04:16:21.564Z,43.33
2018-05-12T04:18:49.037Z,51.70
2018-05-12T04:21:16.479Z,45.53
2018-05-12T04:23:43.948Z,47.47
2018-05-12T04:26:11.395Z,53.13
2018-05-12T04:28:38.882Z,56.00
2018-05-12T04:31:06.354Z,43.77
2018-05-12T04:33:33.824Z,52.70
2018-05-12T04:36:01.291Z,45.03
2018-05-12T04:38:28.785Z,45.10
2018-05-12T04:40:56.222Z,50.40
2018-05-12T04:43:23.694Z,47.33
2018-05-12T04:45:51.169Z,50.70
2018-05-12T04:48:18.696Z,43.53
2018-05-12T04:50:46.217Z,51.07
2018-05-12T04:53:13.671Z,52.50
2018-05-12T04:55:41.130Z,46.63
2018-05-12T04:58:08.597Z,47.47
2018-05-12T05:00:36.065Z,47.33
2018-05-12T05:03:03.535Z,49.20
2018-05-12T05:05:31.014Z,52.70
2018-05-12T05:07:58.541Z,51.70
2018-05-12T05:10:26.010Z,50.03
2018-05-12T05:12:53.461Z,35.97
2018-05-12T05:15:21.111Z,55.00
2018-05-12T05:17:48.496Z,44.93
2018-05-12T05:20:15.942Z,45.70
2018-05-12T05:22:43.393Z,50.77
2018-05-12T05:25:10.849Z,46.53
2018-05-12T05:27:38.338Z,48.13
2018-05-12T05:30:05.810Z,46.90
2018-05-12T05:32:33.275Z,50.37
2018-05-12T05:35:00.764Z,48.43
2018-05-12T05:37:28.224Z,49.60
2018-05-12T05:39:55.665Z,54.73
2018-05-12T05:42:23.100Z,50.50
2018-05-12T05:44:50.547Z,43.57
2018-05-12T05:47:18.233Z,52.17
2018-05-12T05:49:45.732Z,42.33
2018-05-12T05:52:13.209Z,50.53
2018-05-12T05:54:40.728Z,32.67
2018-05-12T05:57:08.210Z,48.70
2018-05-12T05:59:35.690Z,48.87
2018-05-12T06:02:03.128Z,34.53
2018-05-12T06:04:30.595Z,32.10
2018-05-12T06:06:58.068Z,51.17
2018-05-12T06:09:25.498Z,47.30
2018-05-12T06:11:53.178Z,40.53
2018-05-12T06:14:20.752Z,49.57
2018-05-12T06:16:48.259Z,46.10
2018-05-12T06:19:15.722Z,44.00
2018-05-12T06:21:43.203Z,66.20
2018-05-12T06:24:10.659Z,55.33
2018-05-12T06:26:38.125Z,49.93
2018-05-12T06:29:05.572Z,56.10
2018-05-12T06:31:33.022Z,56.27
2018-05-12T06:34:00.511Z,43.57
2018-05-12T06:36:27.968Z,29.50
2018-05-12T06:38:55.464Z,58.07
2018-05-12T06:41:22.934Z,49.40
2018-05-12T06:43:50.419Z,33.60
2018-05-12T06:46:17.890Z,44.33
2018-05-12T06:48:45.356Z,36.43
2018-05-12T06:51:12.828Z,41.60
2018-05-12T06:53:40.281Z,61.03
2018-05-12T06:56:07.749Z,55.00
2018-05-12T06:58:35.241Z,38.97
2018-05-12T07:01:02.696Z,40.27
2018-05-12T07:03:30.165Z,40.03
2018-05-12T07:05:57.621Z,60.97
2018-05-12T07:08:25.074Z,41.87
2018-05-12T07:10:52.533Z,43.10
2018-05-12T07:13:19.998Z,54.00
2018-05-12T07:15:47.444Z,41.60
2018-05-12T07:18:14.910Z,51.37
2018-05-12T07:20:42.353Z,49.30
2018-05-12T07:23:09.811Z,40.97
2018-05-12T07:25:37.327Z,54.73
2018-05-12T07:28:04.835Z,51.03
2018-05-12T07:30:32.281Z,54.70
2018-05-12T07:32:59.756Z,27.00
2018-05-12T07:35:27.248Z,54.50
2018-05-12T07:37:54.689Z,57.07
2018-05-12T07:40:22.165Z,61.17
2018-05-12T07:42:49.615Z,46.07
2018-05-12T07:45:17.079Z,53.53
2018-05-12T07:47:44.530Z,56.23
2018-05-12T07:50:11.968Z,52.50
2018-05-12T07:52:39.418Z,31.63
2018-05-12T07:55:06.882Z,41.70
2018-05-12T07:57:34.350Z,55.10
2018-05-12T08:00:01.807Z,28.90
2018-05-12T08:02:29.287Z,29.67
2018-05-12T08:04:56.747Z,38.80
2018-05-12T08:07:24.231Z,56.00
2018-05-12T08:09:51.718Z,39.23
2018-05-12T08:12:19.249Z,37.60
2018-05-12T08:14:46.721Z,34.00
2018-05-12T08:17:14.201Z,33.57
2018-05-12T08:19:41.647Z,57.03
2018-05-12T08:22:09.102Z,52.00
2018-05-12T08:24:36.629Z,45.43
2018-05-12T08:27:04.085Z,51.13
2018-05-12T08:29:31.527Z,40.17
2018-05-12T08:31:59.017Z,45.63
2018-05-12T08:34:26.466Z,47.80
2018-05-12T08:36:53.915Z,29.70
2018-05-12T08:39:21.412Z,39.33
2018-05-12T08:41:48.857Z,39.67
2018-05-12T08:44:16.408Z,44.33
2018-05-12T08:46:43.909Z,28.93
2018-05-12T08:51:45.172Z,30.60
2018-05-12T08:54:12.634Z,32.43
2018-05-12T08:56:40.156Z,30.40
2018-05-12T08:59:07.614Z,35.20
2018-05-12T09:01:35.060Z,38.57
2018-05-12T09:04:02.506Z,36.63
2018-05-12T09:06:29.956Z,43.20
2018-05-12T09:08:57.417Z,33.37
2018-05-12T09:11:24.989Z,41.57
2018-05-12T09:13:52.442Z,25.87
2018-05-12T09:16:19.906Z,36.73
2018-05-12T09:18:47.417Z,27.63
2018-05-12T09:21:14.869Z,31.13
2018-05-12T09:23:42.365Z,26.83
2018-05-12T09:26:09.907Z,34.37
2018-05-12T09:28:37.382Z,31.13
2018-05-12T09:31:04.850Z,21.80
2018-05-12T09:33:32.289Z,41.70
2018-05-12T09:35:59.746Z,21.43
2018-05-12T09:38:27.193Z,44.00
2018-05-12T09:40:54.650Z,35.10
2018-05-12T09:43:22.121Z,41.10
2018-05-12T09:45:49.639Z,38.73
2018-05-12T09:48:17.166Z,26.70
2018-05-12T09:50:44.610Z,29.53
2018-05-12T09:53:12.064Z,39.57
2018-05-12T09:55:39.522Z,35.90
2018-05-12T09:58:06.977Z,21.40
2018-05-12T10:00:34.425Z,30.30
2018-05-12T10:03:01.887Z,17.73
2018-05-12T10:05:29.363Z,16.63
2018-05-12T10:07:58.662Z,28.60
2018-05-12T10:10:26.164Z,24.60
2018-05-12T10:12:53.694Z,15.53
2018-05-12T10:15:21.121Z,22.30
2018-05-12T10:17:48.553Z,17.70
2018-05-12T10:20:16.004Z,14.93
2018-05-12T10:22:43.481Z,11.37
2018-05-12T10:25:10.955Z,11.73
2018-05-12T10:27:38.389Z,9.53
2018-05-12T10:30:05.875Z,10.93
2018-05-12T10:32:33.295Z,9.83
2018-05-12T10:35:00.748Z,11.93
2018-05-12T10:37:28.210Z,12.10
2018-05-12T10:39:55.673Z,10.97
2018-05-12T10:42:23.158Z,11.63
2018-05-12T10:44:50.659Z,9.53
2018-05-12T10:47:18.115Z,12.30
2018-05-12T10:49:45.567Z,9.50
2018-05-12T10:52:13.034Z,13.80
2018-05-12T10:54:40.476Z,9.40
2018-05-12T10:57:07.943Z,10.67
2018-05-12T10:59:35.398Z,14.57
2018-05-12T11:02:02.928Z,16.80
2018-05-12T11:04:30.309Z,14.60
2018-05-12T11:06:57.755Z,12.63
2018-05-12T11:09:25.215Z,13.50
2018-05-12T11:11:52.658Z,12.53
2018-05-12T11:14:20.110Z,13.20
2018-05-12T11:16:47.575Z,10.70
2018-05-12T11:19:15.010Z,8.63
2018-05-12T11:21:42.471Z,8.33
2018-05-12T11:24:09.914Z,10.13
2018-05-12T11:26:37.570Z,9.80
2018-05-12T11:29:05.058Z,14.27
2018-05-12T11:31:32.533Z,7.70
2018-05-12T11:34:00.010Z,7.53
2018-05-12T11:36:27.512Z,7.07
2018-05-12T11:38:54.954Z,6.93
2018-05-12T11:41:22.409Z,6.93
2018-05-12T11:43:49.911Z,6.10
2018-05-12T11:46:17.374Z,5.20
2018-05-12T11:48:44.850Z,4.83
2018-05-12T11:51:12.298Z,5.83
2018-05-12T11:53:39.738Z,5.70
2018-05-12T11:56:07.222Z,5.87
2018-05-12T11:58:34.688Z,6.83
2018-05-12T12:01:02.157Z,5.33
2018-05-12T12:03:29.622Z,5.80
2018-05-12T12:05:57.077Z,6.73
2018-05-12T12:08:24.525Z,5.07
2018-05-12T12:10:51.997Z,4.40
2018-05-12T12:13:19.450Z,4.40
2018-05-12T12:15:46.889Z,4.97
2018-05-12T12:18:14.430Z,4.23
2018-05-12T12:20:41.883Z,3.83
2018-05-12T12:23:09.328Z,4.07
2018-05-12T12:25:36.775Z,3.90
2018-05-12T12:28:04.218Z,3.87
2018-05-12T12:30:31.682Z,3.83
2018-05-12T12:32:59.127Z,4.70
2018-05-12T12:35:26.601Z,4.43
2018-05-12T12:37:54.046Z,4.97
2018-05-12T12:40:21.483Z,4.33
2018-05-12T12:42:48.921Z,4.60
2018-05-12T12:45:16.385Z,4.00
2018-05-12T12:47:43.853Z,3.47
2018-05-12T12:50:11.291Z,3.83
2018-05-12T12:52:38.740Z,4.17
2018-05-12T12:55:06.179Z,4.10
2018-05-12T12:57:33.694Z,4.10
2018-05-12T13:00:01.154Z,2.80
2018-05-12T13:02:28.648Z,3.20
2018-05-12T13:04:56.183Z,4.27
2018-05-12T13:07:23.553Z,3.20
2018-05-12T13:09:51.017Z,3.20
2018-05-12T13:12:18.503Z,3.73
2018-05-12T13:14:45.947Z,4.13
2018-05-12T13:17:13.376Z,4.43
2018-05-12T13:19:40.830Z,3.53
2018-05-12T13:22:08.281Z,3.40
2018-05-12T13:24:35.725Z,3.27
2018-05-12T13:27:03.161Z,4.00
2018-05-12T13:29:30.597Z,3.10
2018-05-12T13:31:58.029Z,3.07
2018-05-12T13:34:25.466Z,3.50
2018-05-12T13:36:52.901Z,2.93
2018-05-12T13:39:20.332Z,3.73
2018-05-12T13:41:47.980Z,3.70
2018-05-12T13:44:15.436Z,2.80
2018-05-12T13:46:42.978Z,2.80
2018-05-12T13:49:10.440Z,2.70
2018-05-12T13:51:37.885Z,3.00
2018-05-12T13:54:05.335Z,2.57
2018-05-12T13:56:32.781Z,4.23
2018-05-12T13:59:00.222Z,3.10
2018-05-12T14:01:27.818Z,4.83
2018-05-12T14:03:55.286Z,4.60
2018-05-12T14:06:22.846Z,4.27
2018-05-12T14:08:50.373Z,4.13
2018-05-12T14:11:18.667Z,4.40
2018-05-12T14:13:46.131Z,4.07
2018-05-12T14:16:13.885Z,4.80
2018-05-12T14:18:41.262Z,3.40
2018-05-12T14:21:08.725Z,4.70
2018-05-12T14:23:36.168Z,4.63
2018-05-12T14:26:03.606Z,3.60
2018-05-12T14:28:31.046Z,3.40
2018-05-12T14:30:58.494Z,3.50
2018-05-12T14:33:26.180Z,5.30
2018-05-12T14:35:53.624Z,4.10
2018-05-12T14:38:21.057Z,3.37
2018-05-12T14:40:48.521Z,2.70
2018-05-12T14:43:16.010Z,3.83
2018-05-12T14:45:43.451Z,3.30
2018-05-12T14:48:10.884Z,3.20
2018-05-12T14:50:38.409Z,4.00
2018-05-12T14:53:05.861Z,4.63
2018-05-12T14:55:33.444Z,3.03
2018-05-12T14:58:00.890Z,3.37
2018-05-12T15:00:28.378Z,3.23
2018-05-12T15:02:55.826Z,6.23
2018-05-12T15:05:23.266Z,4.47
2018-05-12T15:07:50.782Z,3.60
2018-05-12T15:10:18.258Z,4.90
2018-05-12T15:12:45.707Z,4.57
2018-05-12T15:15:13.163Z,3.80
2018-05-12T15:17:40.605Z,4.20
2018-05-12T15:20:08.048Z,4.97
2018-05-12T15:22:35.505Z,4.70
2018-05-12T15:25:02.975Z,4.13
2018-05-12T15:27:30.435Z,3.77
2018-05-12T15:29:57.926Z,4.63
2018-05-12T15:32:25.441Z,10.33
2018-05-12T15:34:52.905Z,3.87
2018-05-12T15:37:20.355Z,4.67
2018-05-12T15:39:47.808Z,4.50
2018-05-12T15:42:15.363Z,3.87
2018-05-12T15:44:42.863Z,4.00
2018-05-12T15:47:10.405Z,3.70
2018-05-12T15:49:37.861Z,4.60
2018-05-12T15:52:05.322Z,4.87
2018-05-12T15:54:32.775Z,4.37
2018-05-12T15:57:00.382Z,3.83
2018-05-12T15:59:27.948Z,4.43
2018-05-12T16:01:55.397Z,4.07
2018-05-12T16:04:22.863Z,4.67
2018-05-12T16:06:50.300Z,5.10
2018-05-12T16:09:17.805Z,3.77
2018-05-12T16:11:45.237Z,6.13
2018-05-12T16:14:12.689Z,6.43
2018-05-12T16:16:40.143Z,5.83
2018-05-12T16:19:07.588Z,7.30
2018-05-12T16:21:35.051Z,5.90
2018-05-12T16:24:02.500Z,5.60
2018-05-12T16:26:29.959Z,4.60
2018-05-12T16:28:57.440Z,4.07
2018-05-12T16:31:24.951Z,3.87
2018-05-12T16:33:52.482Z,5.03
2018-05-12T16:36:19.920Z,4.40
2018-05-12T16:38:47.383Z,4.60
2018-05-12T16:41:14.840Z,5.67
2018-05-12T16:43:42.302Z,6.50
2018-05-12T16:46:09.755Z,4.20
2018-05-12T16:48:37.200Z,12.33
2018-05-12T16:51:04.866Z,4.60
2018-05-12T16:53:32.291Z,4.47
2018-05-12T16:55:59.727Z,6.73
2018-05-12T16:58:27.273Z,5.40
2018-05-12T17:00:54.739Z,5.00
2018-05-12T17:03:22.174Z,6.37
2018-05-12T17:05:49.623Z,5.50
2018-05-12T17:08:17.071Z,4.80
2018-05-12T17:10:44.581Z,5.70
2018-05-12T17:13:12.096Z,5.10
2018-05-12T17:15:39.468Z,3.83
2018-05-12T17:18:06.908Z,5.10
2018-05-12T17:20:34.371Z,4.50
2018-05-12T17:23:01.817Z,6.70
2018-05-12T17:25:29.258Z,5.50
2018-05-12T17:27:56.696Z,4.30
2018-05-12T17:30:24.141Z,7.10
2018-05-12T17:32:51.608Z,9.40
2018-05-12T17:35:19.071Z,6.07
2018-05-12T17:37:46.579Z,5.10
2018-05-12T17:40:13.972Z,11.13
2018-05-12T17:42:41.425Z,5.10
2018-05-12T17:45:08.859Z,6.37
2018-05-12T17:47:36.292Z,6.13
2018-05-12T17:50:03.777Z,6.30
2018-05-12T17:52:31.190Z,5.70
2018-05-12T17:54:58.643Z,7.00
2018-05-12T17:57:26.083Z,7.13
2018-05-12T17:59:53.558Z,8.30
2018-05-12T18:02:21.003Z,6.13
2018-05-12T18:04:48.443Z,6.23
2018-05-12T18:07:15.880Z,7.80
2018-05-12T18:09:43.346Z,7.83
2018-05-12T18:12:10.801Z,6.70
2018-05-12T18:14:38.365Z,6.10
2018-05-12T18:17:06.336Z,7.93
2018-05-12T18:19:33.768Z,5.63
2018-05-12T18:22:01.207Z,5.53
2018-05-12T18:24:28.654Z,6.00
2018-05-12T18:26:56.096Z,6.57
2018-05-12T18:29:23.545Z,8.83
2018-05-12T18:31:51.095Z,6.50
2018-05-12T18:34:18.500Z,6.20
2018-05-12T18:36:45.943Z,6.50
2018-05-12T18:39:13.395Z,7.60
2018-05-12T18:41:40.838Z,6.13
2018-05-12T18:44:08.341Z,6.80
2018-05-12T18:46:35.769Z,6.20
2018-05-12T18:49:03.251Z,6.73
2018-05-12T18:51:30.720Z,6.60
2018-05-12T18:53:58.157Z,7.00
2018-05-12T18:56:25.591Z,6.57
2018-05-12T18:58:53.042Z,6.27
2018-05-12T19:01:20.493Z,6.27
2018-05-12T19:03:47.934Z,7.83
2018-05-12T19:06:15.373Z,7.13
2018-05-12T19:08:42.808Z,7.53
2018-05-12T19:11:10.247Z,9.93
2018-05-12T19:13:37.684Z,7.60
2018-05-12T19:16:05.133Z,8.17
2018-05-12T19:18:32.570Z,8.17
2018-05-12T19:21:00.003Z,10.73
2018-05-12T19:23:27.492Z,8.50
2018-05-12T19:25:54.933Z,10.00
2018-05-12T19:28:22.369Z,9.30
2018-05-12T19:30:49.828Z,8.03
2018-05-12T19:33:17.269Z,8.57
2018-05-12T19:35:44.715Z,8.53
2018-05-12T19:38:12.150Z,6.73
2018-05-12T19:40:39.597Z,9.83
2018-05-12T19:43:07.055Z,11.13
2018-05-12T19:45:34.497Z,8.83
2018-05-12T19:48:01.932Z,9.37
2018-05-12T19:50:29.390Z,8.90
2018-05-12T19:52:56.834Z,9.47
2018-05-12T19:55:24.294Z,7.83
2018-05-12T19:57:51.757Z,9.53
2018-05-12T20:00:19.240Z,8.90
2018-05-12T20:02:46.676Z,8.10
2018-05-12T20:05:14.114Z,8.27
2018-05-12T20:07:41.553Z,7.17
2018-05-12T20:10:08.988Z,8.70
2018-05-12T20:12:36.444Z,9.10
2018-05-12T20:15:03.876Z,9.20
2018-05-12T20:17:31.326Z,9.93
2018-05-12T20:19:58.773Z,7.50
2018-05-12T20:22:26.322Z,9.03
2018-05-12T20:24:53.834Z,9.43
2018-05-12T20:27:21.318Z,8.73
2018-05-12T20:29:49.745Z,9.20
2018-05-12T20:32:17.207Z,8.20
2018-05-12T20:34:44.665Z,7.47
2018-05-12T20:37:12.191Z,6.93
2018-05-12T20:39:39.562Z,9.20
2018-05-12T20:42:07.200Z,8.97
2018-05-12T20:44:34.654Z,8.50
2018-05-12T20:47:02.128Z,9.63
2018-05-12T20:49:29.581Z,9.33
2018-05-12T20:51:57.074Z,10.70
2018-05-12T20:54:24.510Z,9.53
2018-05-12T20:56:51.984Z,11.07
2018-05-12T20:59:19.478Z,11.47
2018-05-12T21:01:46.925Z,10.27
2018-05-12T21:04:14.408Z,10.60
2018-05-12T21:06:41.871Z,10.17
2018-05-12T21:09:09.323Z,15.47
2018-05-12T21:11:36.765Z,10.27
2018-05-12T21:14:04.207Z,10.17
2018-05-12T21:16:31.653Z,10.90
2018-05-12T21:18:59.094Z,9.80
2018-05-12T21:21:26.555Z,10.03
2018-05-12T21:23:54.103Z,10.23
2018-05-12T21:26:21.535Z,11.30
2018-05-12T21:28:48.978Z,9.77
2018-05-12T21:31:16.456Z,10.30
2018-05-12T21:33:43.920Z,9.60
2018-05-12T21:36:11.382Z,11.37
2018-05-12T21:38:38.921Z,13.00
2018-05-12T21:41:06.395Z,17.07
2018-05-12T21:43:33.846Z,13.47
2018-05-12T21:46:01.320Z,12.30
2018-05-12T21:48:28.771Z,8.90
2018-05-12T21:50:56.216Z,9.30
2018-05-12T21:53:23.686Z,15.23
2018-05-12T21:55:51.163Z,13.37
2018-05-12T21:58:18.705Z,12.57
2018-05-12T22:00:46.175Z,13.87
2018-05-12T22:03:13.667Z,14.73
2018-05-12T22:05:41.166Z,12.83
2018-05-12T22:08:09.307Z,12.03
2018-05-12T22:10:36.755Z,16.67
2018-05-12T22:13:04.233Z,10.30
2018-05-12T22:15:31.702Z,14.83
2018-05-12T22:17:59.187Z,12.37
2018-05-12T22:20:26.621Z,8.80
2018-05-12T22:22:54.098Z,11.40
2018-05-12T22:25:21.910Z,12.00
2018-05-12T22:27:49.357Z,10.30
2018-05-12T22:30:16.883Z,11.27
2018-05-12T22:32:44.328Z,10.03
2018-05-12T22:35:11.785Z,8.80
2018-05-12T22:37:39.276Z,9.00
2018-05-12T22:40:06.746Z,8.03
2018-05-12T22:42:34.191Z,8.93
2018-05-12T22:45:01.691Z,8.83
2018-05-12T22:47:29.236Z,11.00
2018-05-12T22:49:56.674Z,7.47
2018-05-12T22:52:24.212Z,7.73
2018-05-12T22:54:52.029Z,10.90
2018-05-12T22:57:19.512Z,7.13
2018-05-12T22:59:47.011Z,10.77
2018-05-12T23:02:14.569Z,8.83
2018-05-12T23:04:42.066Z,12.30
2018-05-12T23:07:09.497Z,7.80
2018-05-12T23:09:37.053Z,9.67
2018-05-12T23:12:04.517Z,8.70
2018-05-12T23:14:32.078Z,8.23
2018-05-12T23:16:59.560Z,7.47
2018-05-12T23:19:27.017Z,7.63
2018-05-12T23:21:54.503Z,10.17
2018-05-12T23:24:21.966Z,8.90
2018-05-12T23:26:49.449Z,7.53
2018-05-12T23:29:16.962Z,7.80
2018-05-12T23:31:44.501Z,8.60
2018-05-12T23:34:12.059Z,7.90
2018-05-12T23:36:39.501Z,8.70
2018-05-12T23:39:07.195Z,9.73
2018-05-12T23:41:34.717Z,7.50
2018-05-12T23:44:02.207Z,8.33
2018-05-12T23:46:29.770Z,9.70
2018-05-12T23:48:57.278Z,10.90
2018-05-12T23:51:24.936Z,8.60
2018-05-12T23:53:52.323Z,10.43
2018-05-12T23:56:19.792Z,7.17
2018-05-12T23:58:47.273Z,7.50
